sensor_id;sensor_type;location;lat;lon;timestamp;temperature;humidity
65826;DHT22;52586;-43.152;172.732;2023-06-22T00:01:15;15.30;64.40
65826;DHT22;52586;-43.152;172.732;2023-06-22T00:03:46;15.30;64.40
65826;DHT22;52586;-43.152;172.732;2023-06-22T00:06:16;15.20;64.30
65826;DHT22;52586;-43.152;172.732;2023-06-22T00:08:47;15.30;64.40
65826;DHT22;52586;-43.152;172.732;2023-06-22T00:11:18;15.30;64.40
65826;DHT22;52586;-43.152;172.732;2023-06-22T00:13:48;15.30;64.40
65826;DHT22;52586;-43.152;172.732;2023-06-22T00:16:21;15.30;64.40
65826;DHT22;52586;-43.152;172.732;2023-06-22T00:18:51;15.30;64.40
65826;DHT22;52586;-43.152;172.732;2023-06-22T00:21:22;15.30;64.40
65826;DHT22;52586;-43.152;172.732;2023-06-22T00:23:52;15.30;64.30
65826;DHT22;52586;-43.152;172.732;2023-06-22T00:26:23;15.30;64.30
65826;DHT22;52586;-43.152;172.732;2023-06-22T00:28:54;15.30;64.30
65826;DHT22;52586;-43.152;172.732;2023-06-22T00:31:27;15.30;64.40
65826;DHT22;52586;-43.152;172.732;2023-06-22T00:33:57;15.30;64.40
65826;DHT22;52586;-43.152;172.732;2023-06-22T00:36:28;15.30;64.40
65826;DHT22;52586;-43.152;172.732;2023-06-22T00:38:58;15.30;64.40
65826;DHT22;52586;-43.152;172.732;2023-06-22T00:41:29;15.30;64.40
65826;DHT22;52586;-43.152;172.732;2023-06-22T00:44:00;15.30;64.40
65826;DHT22;52586;-43.152;172.732;2023-06-22T00:46:32;15.40;64.50
65826;DHT22;52586;-43.152;172.732;2023-06-22T00:49:03;15.40;64.40
65826;DHT22;52586;-43.152;172.732;2023-06-22T00:51:34;15.40;64.40
65826;DHT22;52586;-43.152;172.732;2023-06-22T00:54:06;15.40;64.50
65826;DHT22;52586;-43.152;172.732;2023-06-22T00:56:36;15.30;64.40
65826;DHT22;52586;-43.152;172.732;2023-06-22T00:59:07;15.40;64.40
65826;DHT22;52586;-43.152;172.732;2023-06-22T01:01:41;15.30;64.40
65826;DHT22;52586;-43.152;172.732;2023-06-22T01:04:12;15.40;64.50
65826;DHT22;52586;-43.152;172.732;2023-06-22T01:06:56;15.40;64.40
65826;DHT22;52586;-43.152;172.732;2023-06-22T01:09:33;15.40;64.40
65826;DHT22;52586;-43.152;172.732;2023-06-22T01:12:07;15.40;64.40
65826;DHT22;52586;-43.152;172.732;2023-06-22T01:14:43;15.40;64.40
65826;DHT22;52586;-43.152;172.732;2023-06-22T01:17:20;15.40;64.50
65826;DHT22;52586;-43.152;172.732;2023-06-22T01:19:53;15.40;64.50
65826;DHT22;52586;-43.152;172.732;2023-06-22T01:22:28;15.40;64.50
65826;DHT22;52586;-43.152;172.732;2023-06-22T01:25:09;15.40;64.50
65826;DHT22;52586;-43.152;172.732;2023-06-22T01:27:50;15.40;64.60
65826;DHT22;52586;-43.152;172.732;2023-06-22T01:30:25;15.40;64.60
65826;DHT22;52586;-43.152;172.732;2023-06-22T01:32:58;15.50;64.60
65826;DHT22;52586;-43.152;172.732;2023-06-22T01:35:29;15.50;64.70
65826;DHT22;52586;-43.152;172.732;2023-06-22T01:38:01;15.50;64.70
65826;DHT22;52586;-43.152;172.732;2023-06-22T01:40:33;15.50;64.70
65826;DHT22;52586;-43.152;172.732;2023-06-22T01:43:04;15.50;64.70
65826;DHT22;52586;-43.152;172.732;2023-06-22T01:45:37;15.50;64.70
65826;DHT22;52586;-43.152;172.732;2023-06-22T01:48:08;15.50;64.60
65826;DHT22;52586;-43.152;172.732;2023-06-22T01:50:39;15.50;64.70
65826;DHT22;52586;-43.152;172.732;2023-06-22T01:53:10;15.50;64.70
65826;DHT22;52586;-43.152;172.732;2023-06-22T01:55:41;15.50;64.70
65826;DHT22;52586;-43.152;172.732;2023-06-22T01:58:11;15.50;64.70
65826;DHT22;52586;-43.152;172.732;2023-06-22T02:00:48;15.50;64.70
65826;DHT22;52586;-43.152;172.732;2023-06-22T02:03:21;15.50;64.70
65826;DHT22;52586;-43.152;172.732;2023-06-22T02:05:54;15.50;64.60
65826;DHT22;52586;-43.152;172.732;2023-06-22T02:08:30;15.50;64.60
65826;DHT22;52586;-43.152;172.732;2023-06-22T02:11:03;15.50;64.60
65826;DHT22;52586;-43.152;172.732;2023-06-22T02:13:36;15.50;64.60
65826;DHT22;52586;-43.152;172.732;2023-06-22T02:16:13;15.50;64.50
65826;DHT22;52586;-43.152;172.732;2023-06-22T02:18:48;15.60;64.60
65826;DHT22;52586;-43.152;172.732;2023-06-22T02:21:20;15.60;64.60
65826;DHT22;52586;-43.152;172.732;2023-06-22T02:23:51;15.60;64.70
65826;DHT22;52586;-43.152;172.732;2023-06-22T02:26:22;15.50;64.60
65826;DHT22;52586;-43.152;172.732;2023-06-22T02:28:54;15.60;64.70
65826;DHT22;52586;-43.152;172.732;2023-06-22T02:31:26;15.60;64.80
65826;DHT22;52586;-43.152;172.732;2023-06-22T02:33:59;15.60;64.80
65826;DHT22;52586;-43.152;172.732;2023-06-22T02:36:30;15.60;64.80
65826;DHT22;52586;-43.152;172.732;2023-06-22T02:39:00;15.60;64.80
65826;DHT22;52586;-43.152;172.732;2023-06-22T02:41:32;15.60;64.80
65826;DHT22;52586;-43.152;172.732;2023-06-22T02:44:02;15.60;64.80
65826;DHT22;52586;-43.152;172.732;2023-06-22T02:46:35;15.60;64.90
65826;DHT22;52586;-43.152;172.732;2023-06-22T02:49:06;15.60;64.80
65826;DHT22;52586;-43.152;172.732;2023-06-22T02:51:38;15.70;64.80
65826;DHT22;52586;-43.152;172.732;2023-06-22T02:54:10;15.60;64.80
65826;DHT22;52586;-43.152;172.732;2023-06-22T02:56:40;15.70;64.80
65826;DHT22;52586;-43.152;172.732;2023-06-22T02:59:11;15.70;64.90
65826;DHT22;52586;-43.152;172.732;2023-06-22T03:01:44;15.70;64.90
65826;DHT22;52586;-43.152;172.732;2023-06-22T03:04:14;15.70;65.00
65826;DHT22;52586;-43.152;172.732;2023-06-22T03:06:45;15.70;64.90
65826;DHT22;52586;-43.152;172.732;2023-06-22T03:09:18;15.70;64.90
65826;DHT22;52586;-43.152;172.732;2023-06-22T03:11:49;15.70;65.00
65826;DHT22;52586;-43.152;172.732;2023-06-22T03:14:19;15.70;65.00
65826;DHT22;52586;-43.152;172.732;2023-06-22T03:16:52;15.70;65.00
65826;DHT22;52586;-43.152;172.732;2023-06-22T03:19:23;15.70;65.10
65826;DHT22;52586;-43.152;172.732;2023-06-22T03:21:53;15.70;65.10
65826;DHT22;52586;-43.152;172.732;2023-06-22T03:24:24;15.70;65.00
65826;DHT22;52586;-43.152;172.732;2023-06-22T03:26:56;15.70;65.00
65826;DHT22;52586;-43.152;172.732;2023-06-22T03:29:27;15.70;65.00
65826;DHT22;52586;-43.152;172.732;2023-06-22T03:31:59;15.80;65.00
65826;DHT22;52586;-43.152;172.732;2023-06-22T03:34:30;15.80;65.10
65826;DHT22;52586;-43.152;172.732;2023-06-22T03:37:01;15.70;65.00
65826;DHT22;52586;-43.152;172.732;2023-06-22T03:39:32;15.80;65.00
65826;DHT22;52586;-43.152;172.732;2023-06-22T03:42:03;15.80;65.10
65826;DHT22;52586;-43.152;172.732;2023-06-22T03:44:34;15.80;65.10
65826;DHT22;52586;-43.152;172.732;2023-06-22T03:47:07;15.80;65.10
65826;DHT22;52586;-43.152;172.732;2023-06-22T03:49:38;15.80;65.10
65826;DHT22;52586;-43.152;172.732;2023-06-22T03:52:09;15.80;65.10
65826;DHT22;52586;-43.152;172.732;2023-06-22T03:54:40;15.80;65.10
65826;DHT22;52586;-43.152;172.732;2023-06-22T03:57:11;15.80;65.10
65826;DHT22;52586;-43.152;172.732;2023-06-22T03:59:41;15.90;65.20
65826;DHT22;52586;-43.152;172.732;2023-06-22T04:02:14;15.90;65.20
65826;DHT22;52586;-43.152;172.732;2023-06-22T04:04:45;15.90;65.10
65826;DHT22;52586;-43.152;172.732;2023-06-22T04:07:15;15.90;65.10
65826;DHT22;52586;-43.152;172.732;2023-06-22T04:09:46;15.90;65.10
65826;DHT22;52586;-43.152;172.732;2023-06-22T04:12:16;15.90;65.90
65826;DHT22;52586;-43.152;172.732;2023-06-22T04:14:47;15.90;65.10
65826;DHT22;52586;-43.152;172.732;2023-06-22T04:17:20;15.90;65.00
65826;DHT22;52586;-43.152;172.732;2023-06-22T04:19:52;15.90;65.10
65826;DHT22;52586;-43.152;172.732;2023-06-22T04:22:23;15.90;65.00
65826;DHT22;52586;-43.152;172.732;2023-06-22T04:24:53;15.90;65.10
65826;DHT22;52586;-43.152;172.732;2023-06-22T04:27:24;15.90;65.20
65826;DHT22;52586;-43.152;172.732;2023-06-22T04:29:55;16.00;65.50
65826;DHT22;52586;-43.152;172.732;2023-06-22T04:32:29;16.00;65.50
65826;DHT22;52586;-43.152;172.732;2023-06-22T04:35:00;16.00;65.50
65826;DHT22;52586;-43.152;172.732;2023-06-22T04:37:32;16.00;65.70
65826;DHT22;52586;-43.152;172.732;2023-06-22T04:40:03;16.00;65.70
65826;DHT22;52586;-43.152;172.732;2023-06-22T04:42:35;16.00;65.70
65826;DHT22;52586;-43.152;172.732;2023-06-22T04:45:06;16.00;65.70
65826;DHT22;52586;-43.152;172.732;2023-06-22T04:47:40;16.00;66.40
65826;DHT22;52586;-43.152;172.732;2023-06-22T04:50:10;16.10;65.60
65826;DHT22;52586;-43.152;172.732;2023-06-22T04:52:41;16.10;65.60
65826;DHT22;52586;-43.152;172.732;2023-06-22T04:55:13;16.10;65.50
65826;DHT22;52586;-43.152;172.732;2023-06-22T04:57:46;16.10;65.50
65826;DHT22;52586;-43.152;172.732;2023-06-22T05:00:18;16.10;65.50
65826;DHT22;52586;-43.152;172.732;2023-06-22T05:02:52;16.10;65.40
65826;DHT22;52586;-43.152;172.732;2023-06-22T05:05:24;16.10;65.40
65826;DHT22;52586;-43.152;172.732;2023-06-22T05:07:57;16.20;65.50
65826;DHT22;52586;-43.152;172.732;2023-06-22T05:10:29;16.10;65.30
65826;DHT22;52586;-43.152;172.732;2023-06-22T05:13:00;16.10;65.30
65826;DHT22;52586;-43.152;172.732;2023-06-22T05:15:30;16.20;65.40
65826;DHT22;52586;-43.152;172.732;2023-06-22T05:18:06;16.20;65.30
65826;DHT22;52586;-43.152;172.732;2023-06-22T05:20:37;16.20;65.30
65826;DHT22;52586;-43.152;172.732;2023-06-22T05:23:07;16.20;65.20
65826;DHT22;52586;-43.152;172.732;2023-06-22T05:25:38;16.20;65.20
65826;DHT22;52586;-43.152;172.732;2023-06-22T05:28:09;16.20;65.30
65826;DHT22;52586;-43.152;172.732;2023-06-22T05:30:40;16.20;65.20
65826;DHT22;52586;-43.152;172.732;2023-06-22T05:33:12;16.20;65.20
65826;DHT22;52586;-43.152;172.732;2023-06-22T05:35:43;16.20;65.20
65826;DHT22;52586;-43.152;172.732;2023-06-22T05:38:14;16.20;65.20
65826;DHT22;52586;-43.152;172.732;2023-06-22T05:40:44;16.20;65.20
65826;DHT22;52586;-43.152;172.732;2023-06-22T05:43:15;16.20;65.10
65826;DHT22;52586;-43.152;172.732;2023-06-22T05:45:46;16.20;65.10
65826;DHT22;52586;-43.152;172.732;2023-06-22T05:48:18;16.20;65.10
65826;DHT22;52586;-43.152;172.732;2023-06-22T05:50:49;16.20;65.10
65826;DHT22;52586;-43.152;172.732;2023-06-22T05:53:20;16.30;65.10
65826;DHT22;52586;-43.152;172.732;2023-06-22T05:55:50;16.30;65.20
65826;DHT22;52586;-43.152;172.732;2023-06-22T05:58:21;16.30;65.10
65826;DHT22;52586;-43.152;172.732;2023-06-22T06:00:52;16.30;65.10
65826;DHT22;52586;-43.152;172.732;2023-06-22T06:03:24;16.30;65.10
65826;DHT22;52586;-43.152;172.732;2023-06-22T06:05:56;16.30;65.10
65826;DHT22;52586;-43.152;172.732;2023-06-22T06:08:27;16.30;65.10
65826;DHT22;52586;-43.152;172.732;2023-06-22T06:10:57;16.30;65.20
65826;DHT22;52586;-43.152;172.732;2023-06-22T06:13:28;16.30;65.20
65826;DHT22;52586;-43.152;172.732;2023-06-22T06:15:59;16.30;65.20
65826;DHT22;52586;-43.152;172.732;2023-06-22T06:18:31;16.30;65.20
65826;DHT22;52586;-43.152;172.732;2023-06-22T06:21:02;16.30;65.20
65826;DHT22;52586;-43.152;172.732;2023-06-22T06:23:32;16.30;65.10
65826;DHT22;52586;-43.152;172.732;2023-06-22T06:26:03;16.30;65.10
65826;DHT22;52586;-43.152;172.732;2023-06-22T06:28:34;16.30;65.10
65826;DHT22;52586;-43.152;172.732;2023-06-22T06:31:05;16.30;65.00
65826;DHT22;52586;-43.152;172.732;2023-06-22T06:33:38;16.30;65.00
65826;DHT22;52586;-43.152;172.732;2023-06-22T06:36:09;16.30;65.00
65826;DHT22;52586;-43.152;172.732;2023-06-22T06:38:39;16.30;65.00
65826;DHT22;52586;-43.152;172.732;2023-06-22T06:41:10;16.30;65.00
65826;DHT22;52586;-43.152;172.732;2023-06-22T06:43:40;16.30;65.00
65826;DHT22;52586;-43.152;172.732;2023-06-22T06:46:12;16.30;65.00
65826;DHT22;52586;-43.152;172.732;2023-06-22T06:48:44;16.30;65.00
65826;DHT22;52586;-43.152;172.732;2023-06-22T06:51:15;16.30;65.00
65826;DHT22;52586;-43.152;172.732;2023-06-22T06:53:46;16.40;65.00
65826;DHT22;52586;-43.152;172.732;2023-06-22T06:56:17;16.40;65.00
65826;DHT22;52586;-43.152;172.732;2023-06-22T06:58:49;16.30;64.90
65826;DHT22;52586;-43.152;172.732;2023-06-22T07:01:20;16.30;64.90
65826;DHT22;52586;-43.152;172.732;2023-06-22T07:03:52;16.30;64.90
65826;DHT22;52586;-43.152;172.732;2023-06-22T07:06:23;16.30;65.00
65826;DHT22;52586;-43.152;172.732;2023-06-22T07:08:56;16.30;65.00
65826;DHT22;52586;-43.152;172.732;2023-06-22T07:11:27;16.30;65.00
65826;DHT22;52586;-43.152;172.732;2023-06-22T07:13:58;16.30;65.70
65826;DHT22;52586;-43.152;172.732;2023-06-22T07:16:29;16.30;64.90
65826;DHT22;52586;-43.152;172.732;2023-06-22T07:19:02;16.30;64.90
65826;DHT22;52586;-43.152;172.732;2023-06-22T07:21:33;16.30;64.90
65826;DHT22;52586;-43.152;172.732;2023-06-22T07:24:04;16.40;65.00
65826;DHT22;52586;-43.152;172.732;2023-06-22T07:26:35;16.30;64.90
65826;DHT22;52586;-43.152;172.732;2023-06-22T07:29:06;16.30;64.90
65826;DHT22;52586;-43.152;172.732;2023-06-22T07:31:36;16.40;65.00
65826;DHT22;52586;-43.152;172.732;2023-06-22T07:34:09;16.40;65.00
65826;DHT22;52586;-43.152;172.732;2023-06-22T07:36:40;16.30;65.10
65826;DHT22;52586;-43.152;172.732;2023-06-22T07:39:11;16.30;65.10
65826;DHT22;52586;-43.152;172.732;2023-06-22T07:41:42;16.30;65.10
65826;DHT22;52586;-43.152;172.732;2023-06-22T07:44:12;16.30;65.10
65826;DHT22;52586;-43.152;172.732;2023-06-22T07:46:43;16.40;65.10
65826;DHT22;52586;-43.152;172.732;2023-06-22T07:49:16;16.40;65.10
65826;DHT22;52586;-43.152;172.732;2023-06-22T07:51:47;16.40;65.10
65826;DHT22;52586;-43.152;172.732;2023-06-22T07:54:18;16.30;65.00
65826;DHT22;52586;-43.152;172.732;2023-06-22T07:56:48;16.30;65.00
65826;DHT22;52586;-43.152;172.732;2023-06-22T07:59:19;16.30;65.00
65826;DHT22;52586;-43.152;172.732;2023-06-22T08:01:50;16.30;65.00
65826;DHT22;52586;-43.152;172.732;2023-06-22T08:04:23;16.40;65.00
65826;DHT22;52586;-43.152;172.732;2023-06-22T08:06:54;16.40;65.00
65826;DHT22;52586;-43.152;172.732;2023-06-22T08:09:25;16.40;65.00
65826;DHT22;52586;-43.152;172.732;2023-06-22T08:11:56;16.40;65.00
65826;DHT22;52586;-43.152;172.732;2023-06-22T08:14:27;16.40;65.00
65826;DHT22;52586;-43.152;172.732;2023-06-22T08:16:58;16.40;65.00
65826;DHT22;52586;-43.152;172.732;2023-06-22T08:19:30;16.40;65.00
65826;DHT22;52586;-43.152;172.732;2023-06-22T08:22:01;16.40;65.00
65826;DHT22;52586;-43.152;172.732;2023-06-22T08:24:32;16.40;65.00
65826;DHT22;52586;-43.152;172.732;2023-06-22T08:27:02;16.40;64.90
65826;DHT22;52586;-43.152;172.732;2023-06-22T08:29:34;16.40;64.90
65826;DHT22;52586;-43.152;172.732;2023-06-22T08:32:05;16.40;65.00
65826;DHT22;52586;-43.152;172.732;2023-06-22T08:34:38;16.40;65.00
65826;DHT22;52586;-43.152;172.732;2023-06-22T08:37:10;16.30;64.80
65826;DHT22;52586;-43.152;172.732;2023-06-22T08:39:41;16.40;64.90
65826;DHT22;52586;-43.152;172.732;2023-06-22T08:42:11;16.40;64.80
65826;DHT22;52586;-43.152;172.732;2023-06-22T08:44:42;16.40;64.90
65826;DHT22;52586;-43.152;172.732;2023-06-22T08:47:12;16.40;64.90
65826;DHT22;52586;-43.152;172.732;2023-06-22T08:49:45;16.40;64.90
65826;DHT22;52586;-43.152;172.732;2023-06-22T08:52:16;16.40;64.90
65826;DHT22;52586;-43.152;172.732;2023-06-22T08:54:47;16.40;64.90
65826;DHT22;52586;-43.152;172.732;2023-06-22T08:57:18;16.40;64.90
65826;DHT22;52586;-43.152;172.732;2023-06-22T08:59:48;16.40;64.90
65826;DHT22;52586;-43.152;172.732;2023-06-22T09:02:20;16.40;64.90
65826;DHT22;52586;-43.152;172.732;2023-06-22T09:04:53;16.40;64.90
65826;DHT22;52586;-43.152;172.732;2023-06-22T09:07:23;16.40;64.90
65826;DHT22;52586;-43.152;172.732;2023-06-22T09:09:56;16.40;64.90
65826;DHT22;52586;-43.152;172.732;2023-06-22T09:12:26;16.40;64.90
65826;DHT22;52586;-43.152;172.732;2023-06-22T09:14:58;16.40;64.90
65826;DHT22;52586;-43.152;172.732;2023-06-22T09:17:30;16.40;64.90
65826;DHT22;52586;-43.152;172.732;2023-06-22T09:20:03;16.40;64.80
65826;DHT22;52586;-43.152;172.732;2023-06-22T09:22:35;16.40;64.90
65826;DHT22;52586;-43.152;172.732;2023-06-22T09:25:06;16.40;65.30
65826;DHT22;52586;-43.152;172.732;2023-06-22T09:27:37;16.40;65.50
65826;DHT22;52586;-43.152;172.732;2023-06-22T09:30:08;16.40;65.40
65826;DHT22;52586;-43.152;172.732;2023-06-22T09:32:39;16.50;65.40
65826;DHT22;52586;-43.152;172.732;2023-06-22T09:35:12;16.40;65.40
65826;DHT22;52586;-43.152;172.732;2023-06-22T09:37:42;16.40;65.30
65826;DHT22;52586;-43.152;172.732;2023-06-22T09:40:13;16.50;65.40
65826;DHT22;52586;-43.152;172.732;2023-06-22T09:42:44;16.40;65.20
65826;DHT22;52586;-43.152;172.732;2023-06-22T09:45:15;16.40;65.20
65826;DHT22;52586;-43.152;172.732;2023-06-22T09:47:46;16.50;65.20
65826;DHT22;52586;-43.152;172.732;2023-06-22T09:50:18;16.40;65.20
65826;DHT22;52586;-43.152;172.732;2023-06-22T09:52:49;16.50;65.20
65826;DHT22;52586;-43.152;172.732;2023-06-22T09:55:22;16.50;65.20
65826;DHT22;52586;-43.152;172.732;2023-06-22T09:57:53;16.40;65.10
65826;DHT22;52586;-43.152;172.732;2023-06-22T10:00:24;16.50;65.10
65826;DHT22;52586;-43.152;172.732;2023-06-22T10:02:54;16.50;65.10
65826;DHT22;52586;-43.152;172.732;2023-06-22T10:05:27;16.50;65.10
65826;DHT22;52586;-43.152;172.732;2023-06-22T10:07:58;16.50;65.10
65826;DHT22;52586;-43.152;172.732;2023-06-22T10:10:28;16.50;65.10
65826;DHT22;52586;-43.152;172.732;2023-06-22T10:13:07;16.50;65.10
65826;DHT22;52586;-43.152;172.732;2023-06-22T10:15:38;16.50;65.10
65826;DHT22;52586;-43.152;172.732;2023-06-22T10:18:09;16.50;65.10
65826;DHT22;52586;-43.152;172.732;2023-06-22T10:20:41;16.50;65.10
65826;DHT22;52586;-43.152;172.732;2023-06-22T10:23:12;16.50;65.10
65826;DHT22;52586;-43.152;172.732;2023-06-22T10:25:42;16.50;65.10
65826;DHT22;52586;-43.152;172.732;2023-06-22T10:28:13;16.50;65.10
65826;DHT22;52586;-43.152;172.732;2023-06-22T10:30:44;16.50;65.10
65826;DHT22;52586;-43.152;172.732;2023-06-22T10:33:15;16.50;65.10
65826;DHT22;52586;-43.152;172.732;2023-06-22T10:35:47;16.50;65.10
65826;DHT22;52586;-43.152;172.732;2023-06-22T10:38:18;16.50;65.10
65826;DHT22;52586;-43.152;172.732;2023-06-22T10:40:49;16.50;65.10
65826;DHT22;52586;-43.152;172.732;2023-06-22T10:43:19;16.50;65.00
65826;DHT22;52586;-43.152;172.732;2023-06-22T10:45:50;16.50;65.00
65826;DHT22;52586;-43.152;172.732;2023-06-22T10:48:20;16.50;65.00
65826;DHT22;52586;-43.152;172.732;2023-06-22T10:50:53;16.50;65.00
65826;DHT22;52586;-43.152;172.732;2023-06-22T10:53:24;16.50;65.00
65826;DHT22;52586;-43.152;172.732;2023-06-22T10:55:54;16.50;65.00
65826;DHT22;52586;-43.152;172.732;2023-06-22T10:58:25;16.50;65.00
65826;DHT22;52586;-43.152;172.732;2023-06-22T11:00:55;16.50;65.10
65826;DHT22;52586;-43.152;172.732;2023-06-22T11:03:26;16.50;65.10
65826;DHT22;52586;-43.152;172.732;2023-06-22T11:05:59;16.50;65.10
65826;DHT22;52586;-43.152;172.732;2023-06-22T11:08:29;16.60;65.10
65826;DHT22;52586;-43.152;172.732;2023-06-22T11:11:00;16.50;65.10
65826;DHT22;52586;-43.152;172.732;2023-06-22T11:13:31;16.50;65.10
65826;DHT22;52586;-43.152;172.732;2023-06-22T11:16:01;16.50;65.10
65826;DHT22;52586;-43.152;172.732;2023-06-22T11:18:33;16.50;65.10
65826;DHT22;52586;-43.152;172.732;2023-06-22T11:21:05;16.50;65.00
65826;DHT22;52586;-43.152;172.732;2023-06-22T11:23:36;16.50;65.00
65826;DHT22;52586;-43.152;172.732;2023-06-22T11:26:06;16.50;64.90
65826;DHT22;52586;-43.152;172.732;2023-06-22T11:28:37;16.50;65.00
65826;DHT22;52586;-43.152;172.732;2023-06-22T11:31:07;16.60;65.00
65826;DHT22;52586;-43.152;172.732;2023-06-22T11:33:38;16.60;65.00
65826;DHT22;52586;-43.152;172.732;2023-06-22T11:36:11;16.60;65.00
65826;DHT22;52586;-43.152;172.732;2023-06-22T11:38:41;16.60;65.00
65826;DHT22;52586;-43.152;172.732;2023-06-22T11:41:21;16.60;65.00
65826;DHT22;52586;-43.152;172.732;2023-06-22T11:43:52;16.60;65.00
65826;DHT22;52586;-43.152;172.732;2023-06-22T11:46:22;16.60;65.00
65826;DHT22;52586;-43.152;172.732;2023-06-22T11:48:53;16.50;65.00
65826;DHT22;52586;-43.152;172.732;2023-06-22T11:51:25;16.60;65.00
65826;DHT22;52586;-43.152;172.732;2023-06-22T11:53:56;16.50;65.00
65826;DHT22;52586;-43.152;172.732;2023-06-22T11:56:27;16.50;65.00
65826;DHT22;52586;-43.152;172.732;2023-06-22T11:58:57;16.50;65.00
65826;DHT22;52586;-43.152;172.732;2023-06-22T12:01:28;16.60;65.00
65826;DHT22;52586;-43.152;172.732;2023-06-22T12:04:00;16.60;64.90
65826;DHT22;52586;-43.152;172.732;2023-06-22T12:06:37;16.60;64.90
65826;DHT22;52586;-43.152;172.732;2023-06-22T12:09:11;16.60;64.90
65826;DHT22;52586;-43.152;172.732;2023-06-22T12:11:42;16.60;64.90
65826;DHT22;52586;-43.152;172.732;2023-06-22T12:14:13;16.60;64.90
65826;DHT22;52586;-43.152;172.732;2023-06-22T12:16:43;16.60;65.00
65826;DHT22;52586;-43.152;172.732;2023-06-22T12:19:14;16.60;64.90
65826;DHT22;52586;-43.152;172.732;2023-06-22T12:21:46;16.60;64.90
65826;DHT22;52586;-43.152;172.732;2023-06-22T12:24:17;16.60;64.90
65826;DHT22;52586;-43.152;172.732;2023-06-22T12:26:48;16.60;65.00
65826;DHT22;52586;-43.152;172.732;2023-06-22T12:29:19;16.60;65.00
65826;DHT22;52586;-43.152;172.732;2023-06-22T12:31:49;16.60;65.00
65826;DHT22;52586;-43.152;172.732;2023-06-22T12:34:20;16.60;65.00
65826;DHT22;52586;-43.152;172.732;2023-06-22T12:36:53;16.60;65.00
65826;DHT22;52586;-43.152;172.732;2023-06-22T12:39:23;16.60;65.00
65826;DHT22;52586;-43.152;172.732;2023-06-22T12:41:54;16.60;65.00
65826;DHT22;52586;-43.152;172.732;2023-06-22T12:44:25;16.60;64.90
65826;DHT22;52586;-43.152;172.732;2023-06-22T12:46:55;16.60;65.00
65826;DHT22;52586;-43.152;172.732;2023-06-22T12:49:26;16.60;64.90
65826;DHT22;52586;-43.152;172.732;2023-06-22T12:51:59;16.60;64.90
65826;DHT22;52586;-43.152;172.732;2023-06-22T12:54:29;16.60;64.90
65826;DHT22;52586;-43.152;172.732;2023-06-22T12:57:00;16.60;64.90
65826;DHT22;52586;-43.152;172.732;2023-06-22T12:59:31;16.60;65.00
65826;DHT22;52586;-43.152;172.732;2023-06-22T13:02:01;16.60;64.90
65826;DHT22;52586;-43.152;172.732;2023-06-22T13:04:32;16.60;65.00
65826;DHT22;52586;-43.152;172.732;2023-06-22T13:07:05;16.60;64.90
65826;DHT22;52586;-43.152;172.732;2023-06-22T13:09:37;16.60;65.00
65826;DHT22;52586;-43.152;172.732;2023-06-22T13:12:08;16.60;65.00
65826;DHT22;52586;-43.152;172.732;2023-06-22T13:14:39;16.60;65.00
65826;DHT22;52586;-43.152;172.732;2023-06-22T13:17:10;16.60;65.00
65826;DHT22;52586;-43.152;172.732;2023-06-22T13:19:41;16.60;65.00
65826;DHT22;52586;-43.152;172.732;2023-06-22T13:22:29;16.60;65.00
65826;DHT22;52586;-43.152;172.732;2023-06-22T13:25:01;16.60;65.00
65826;DHT22;52586;-43.152;172.732;2023-06-22T13:27:31;16.60;64.80
65826;DHT22;52586;-43.152;172.732;2023-06-22T13:30:02;16.60;64.90
65826;DHT22;52586;-43.152;172.732;2023-06-22T13:32:33;16.60;64.90
65826;DHT22;52586;-43.152;172.732;2023-06-22T13:35:04;16.60;64.90
65826;DHT22;52586;-43.152;172.732;2023-06-22T13:37:36;16.60;64.90
65826;DHT22;52586;-43.152;172.732;2023-06-22T13:40:08;16.60;65.00
65826;DHT22;52586;-43.152;172.732;2023-06-22T13:42:38;16.60;64.90
65826;DHT22;52586;-43.152;172.732;2023-06-22T13:45:09;16.60;65.00
65826;DHT22;52586;-43.152;172.732;2023-06-22T13:47:41;16.60;64.90
65826;DHT22;52586;-43.152;172.732;2023-06-22T13:50:11;16.60;65.00
65826;DHT22;52586;-43.152;172.732;2023-06-22T13:52:44;16.60;65.00
65826;DHT22;52586;-43.152;172.732;2023-06-22T13:55:15;16.60;65.00
65826;DHT22;52586;-43.152;172.732;2023-06-22T13:57:47;16.60;65.00
65826;DHT22;52586;-43.152;172.732;2023-06-22T14:00:19;16.60;65.00
65826;DHT22;52586;-43.152;172.732;2023-06-22T14:02:50;16.60;65.00
65826;DHT22;52586;-43.152;172.732;2023-06-22T14:05:20;16.60;64.90
65826;DHT22;52586;-43.152;172.732;2023-06-22T14:07:53;16.60;64.90
65826;DHT22;52586;-43.152;172.732;2023-06-22T14:10:23;16.60;64.90
65826;DHT22;52586;-43.152;172.732;2023-06-22T14:12:54;16.60;64.90
65826;DHT22;52586;-43.152;172.732;2023-06-22T14:15:25;16.60;64.90
65826;DHT22;52586;-43.152;172.732;2023-06-22T14:17:55;16.60;64.90
65826;DHT22;52586;-43.152;172.732;2023-06-22T14:20:26;16.60;64.90
65826;DHT22;52586;-43.152;172.732;2023-06-22T14:22:58;16.60;64.90
65826;DHT22;52586;-43.152;172.732;2023-06-22T14:25:29;16.60;64.90
65826;DHT22;52586;-43.152;172.732;2023-06-22T14:28:00;16.60;64.90
65826;DHT22;52586;-43.152;172.732;2023-06-22T14:30:30;16.60;64.90
65826;DHT22;52586;-43.152;172.732;2023-06-22T14:33:01;16.60;64.90
65826;DHT22;52586;-43.152;172.732;2023-06-22T14:35:31;16.60;64.90
65826;DHT22;52586;-43.152;172.732;2023-06-22T14:38:04;16.60;65.00
65826;DHT22;52586;-43.152;172.732;2023-06-22T14:40:34;16.60;65.00
65826;DHT22;52586;-43.152;172.732;2023-06-22T14:43:05;16.60;65.00
65826;DHT22;52586;-43.152;172.732;2023-06-22T14:45:36;16.60;64.90
65826;DHT22;52586;-43.152;172.732;2023-06-22T14:48:06;16.60;64.90
65826;DHT22;52586;-43.152;172.732;2023-06-22T14:50:37;16.60;64.90
65826;DHT22;52586;-43.152;172.732;2023-06-22T14:53:10;16.60;64.80
65826;DHT22;52586;-43.152;172.732;2023-06-22T14:55:42;16.60;64.90
65826;DHT22;52586;-43.152;172.732;2023-06-22T14:58:12;16.60;64.90
65826;DHT22;52586;-43.152;172.732;2023-06-22T15:00:43;16.60;64.90
65826;DHT22;52586;-43.152;172.732;2023-06-22T15:03:13;16.60;64.90
65826;DHT22;52586;-43.152;172.732;2023-06-22T15:05:49;16.60;64.90
65826;DHT22;52586;-43.152;172.732;2023-06-22T15:08:21;16.60;64.90
65826;DHT22;52586;-43.152;172.732;2023-06-22T15:10:52;16.60;64.90
65826;DHT22;52586;-43.152;172.732;2023-06-22T15:13:23;16.60;64.90